createdAt,value
2024-04-02T00:00:49.822Z,14.03
2024-04-02T00:04:14.407Z,14.00
2024-04-02T00:07:17.067Z,13.96
2024-04-02T00:10:19.731Z,13.90
2024-04-02T00:13:22.351Z,13.87
2024-04-02T00:16:25.424Z,13.83
2024-04-02T00:19:28.096Z,13.73
2024-04-02T00:22:31.017Z,13.66
2024-04-02T00:25:35.237Z,13.69
2024-04-02T00:28:38.072Z,13.65
2024-04-02T00:31:40.668Z,13.61
2024-04-02T00:34:46.364Z,13.61
2024-04-02T00:37:50.339Z,13.55
2024-04-02T00:40:53.559Z,13.53
2024-04-02T00:43:56.189Z,13.52
2024-04-02T00:46:58.817Z,13.48
2024-04-02T00:50:04.190Z,13.43
2024-04-02T00:53:07.361Z,13.36
2024-04-02T00:56:10.420Z,13.30
2024-04-02T00:59:13.665Z,13.25
2024-04-02T01:02:16.383Z,13.20
2024-04-02T01:05:19.077Z,13.14
2024-04-02T01:08:22.008Z,13.11
2024-04-02T01:11:25.450Z,13.10
2024-04-02T01:14:28.286Z,13.08
2024-04-02T01:17:30.970Z,13.05
2024-04-02T01:20:33.785Z,13.02
2024-04-02T01:23:36.366Z,13.03
2024-04-02T01:26:38.997Z,13.01
2024-04-02T01:29:41.541Z,12.99
2024-04-02T01:32:44.216Z,12.96
2024-04-02T01:35:46.900Z,12.91
2024-04-02T01:38:49.693Z,12.88
2024-04-02T01:41:52.483Z,12.84
2024-04-02T01:44:55.138Z,12.82
2024-04-02T01:47:58.323Z,12.78
2024-04-02T01:51:01.071Z,12.76
2024-04-02T01:54:04.393Z,12.71
2024-04-02T01:57:07.061Z,12.63
2024-04-02T02:00:10.289Z,12.55
2024-04-02T02:03:13.285Z,12.46
2024-04-02T02:06:15.944Z,12.40
2024-04-02T02:09:18.717Z,12.37
2024-04-02T02:12:22.320Z,12.34
2024-04-02T02:15:25.006Z,12.31
2024-04-02T02:18:29.804Z,12.29
2024-04-02T02:21:32.394Z,12.24
2024-04-02T02:24:36.351Z,12.20
2024-04-02T02:27:41.974Z,12.17
2024-04-02T02:30:44.697Z,12.18
2024-04-02T02:33:48.533Z,12.16
2024-04-02T02:36:51.878Z,12.09
2024-04-02T02:39:54.863Z,12.01
2024-04-02T02:42:58.187Z,11.89
2024-04-02T02:46:00.944Z,11.84
2024-04-02T02:49:03.640Z,11.81
2024-04-02T02:52:06.416Z,11.79
2024-04-02T02:55:09.106Z,11.75
2024-04-02T02:58:11.737Z,11.76
2024-04-02T03:01:14.355Z,11.74
2024-04-02T03:04:16.928Z,11.71
2024-04-02T03:07:19.601Z,11.69
2024-04-02T03:10:22.393Z,11.64
2024-04-02T03:13:25.728Z,11.62
2024-04-02T03:16:28.430Z,11.59
2024-04-02T03:19:31.117Z,11.55
2024-04-02T03:22:33.759Z,11.50
2024-04-02T03:25:36.441Z,11.50
2024-04-02T03:28:40.119Z,11.48
2024-04-02T03:31:42.768Z,11.46
2024-04-02T03:34:45.370Z,11.43
2024-04-02T03:37:47.996Z,11.45
2024-04-02T03:40:50.706Z,11.44
2024-04-02T03:43:53.338Z,11.40
2024-04-02T03:46:57.789Z,11.37
2024-04-02T03:50:00.455Z,11.35
2024-04-02T03:53:03.903Z,11.33
2024-04-02T03:56:06.967Z,11.29
2024-04-02T03:59:09.619Z,11.25
2024-04-02T04:02:12.305Z,11.22
2024-04-02T04:05:15.126Z,11.16
2024-04-02T04:08:17.874Z,11.14
2024-04-02T04:11:20.457Z,11.10
2024-04-02T04:14:23.293Z,11.06
2024-04-02T04:17:26.029Z,11.01
2024-04-02T04:20:31.658Z,10.97
2024-04-02T04:23:34.321Z,10.98
2024-04-02T04:26:37.406Z,10.98
2024-04-02T04:29:40.045Z,10.98
2024-04-02T04:32:42.719Z,10.94
2024-04-02T04:35:45.309Z,10.93
2024-04-02T04:38:48.001Z,10.92
2024-04-02T04:41:50.593Z,10.90
2024-04-02T04:44:53.321Z,10.85
2024-04-02T04:47:58.691Z,10.81
2024-04-02T04:51:03.677Z,10.80
2024-04-02T04:54:06.555Z,10.76
2024-04-02T04:57:09.152Z,10.74
2024-04-02T05:00:13.481Z,10.73
2024-04-02T05:03:16.092Z,10.70
2024-04-02T05:06:18.823Z,10.69
2024-04-02T05:09:22.124Z,10.70
2024-04-02T05:12:24.720Z,10.73
2024-04-02T05:15:27.358Z,10.74
2024-04-02T05:18:30.072Z,10.72
2024-04-02T05:21:32.673Z,10.69
2024-04-02T05:24:35.492Z,10.66
2024-04-02T05:27:38.127Z,10.62
2024-04-02T05:30:40.801Z,10.59
2024-04-02T05:33:44.003Z,10.55
2024-04-02T05:36:46.966Z,10.51
2024-04-02T05:39:52.734Z,10.46
2024-04-02T05:42:55.361Z,10.42
2024-04-02T05:45:57.998Z,10.37
2024-04-02T05:49:01.155Z,10.32
2024-04-02T05:52:04.187Z,10.26
2024-04-02T05:55:07.044Z,10.30
2024-04-02T05:58:09.656Z,10.30
2024-04-02T06:01:12.465Z,10.29
2024-04-02T06:04:15.171Z,10.31
2024-04-02T06:07:17.825Z,10.29
2024-04-02T06:10:23.107Z,10.25
2024-04-02T06:13:26.007Z,10.26
2024-04-02T06:16:28.666Z,10.27
2024-04-02T06:19:35.096Z,10.27
2024-04-02T06:22:38.344Z,10.28
2024-04-02T06:25:59.551Z,10.24
2024-04-02T06:29:02.244Z,10.24
2024-04-02T06:32:05.305Z,10.23
2024-04-02T06:35:08.031Z,10.26
2024-04-02T06:51:22.752Z,10.63
2024-04-02T06:54:25.391Z,10.63
2024-04-02T06:57:28.089Z,10.56
2024-04-02T07:00:30.804Z,10.49
2024-04-02T07:03:33.785Z,10.44
2024-04-02T07:06:36.715Z,10.37
2024-04-02T07:09:39.332Z,10.32
2024-04-02T07:12:42.047Z,10.26
2024-04-02T07:15:44.757Z,10.21
2024-04-02T07:18:47.440Z,10.16
2024-04-02T07:21:50.100Z,10.10
2024-04-02T07:24:52.670Z,10.05
2024-04-02T07:27:55.367Z,9.97
2024-04-02T07:30:58.034Z,9.91
2024-04-02T07:34:00.652Z,9.91
2024-04-02T07:37:03.284Z,9.89
2024-04-02T07:40:06.696Z,9.90
2024-04-02T07:43:09.578Z,9.88
2024-04-02T07:46:12.203Z,9.89
2024-04-02T07:49:15.640Z,9.88
2024-04-02T07:52:18.356Z,9.82
2024-04-02T07:55:21.061Z,9.82
2024-04-02T07:58:23.688Z,9.77
2024-04-02T08:01:29.543Z,9.73
2024-04-02T08:04:32.234Z,9.71
2024-04-02T08:07:34.943Z,9.74
2024-04-02T08:10:37.599Z,9.76
2024-04-02T08:13:40.307Z,9.82
2024-04-02T08:16:42.969Z,9.86
2024-04-02T08:19:46.226Z,9.90
2024-04-02T08:22:49.128Z,9.92
2024-04-02T08:25:51.836Z,9.96
2024-04-02T08:28:54.568Z,10.00
2024-04-02T08:31:57.177Z,10.03
2024-04-02T08:34:59.866Z,10.02
2024-04-02T08:38:02.571Z,10.03
2024-04-02T08:41:05.630Z,10.04
2024-04-02T08:44:08.484Z,10.01
2024-04-02T08:47:12.498Z,10.02
2024-04-02T08:50:20.131Z,10.05
2024-04-02T08:53:23.919Z,10.00
2024-04-02T08:56:26.702Z,9.95
2024-04-02T08:59:32.671Z,9.90
2024-04-02T09:02:36.068Z,9.86
2024-04-02T09:05:38.698Z,9.89
2024-04-02T09:08:44.968Z,9.92
2024-04-02T09:11:47.528Z,9.92
2024-04-02T09:14:50.148Z,9.86
2024-04-02T09:17:52.818Z,9.86
2024-04-02T09:20:55.452Z,9.85
2024-04-02T09:23:58.904Z,9.86
2024-04-02T09:27:01.560Z,9.85
2024-04-02T09:30:04.405Z,9.83
2024-04-02T09:33:07.203Z,9.84
2024-04-02T09:36:18.169Z,9.84
2024-04-02T09:39:23.362Z,9.85
2024-04-02T09:42:26.835Z,9.88
2024-04-02T09:45:30.882Z,9.88
2024-04-02T09:48:35.611Z,9.91
2024-04-02T09:51:40.791Z,9.94
2024-04-02T09:54:47.823Z,10.00
2024-04-02T09:57:50.685Z,10.04
2024-04-02T10:00:57.280Z,10.11
2024-04-02T10:04:06.424Z,10.16
2024-04-02T10:07:28.956Z,10.19
2024-04-02T10:10:31.828Z,10.23
2024-04-02T10:13:38.540Z,10.28
2024-04-02T10:16:42.114Z,10.34
2024-04-02T10:19:47.621Z,10.38
2024-04-02T10:22:54.016Z,10.40
2024-04-02T10:25:56.804Z,10.44
2024-04-02T10:29:00.726Z,10.49
2024-04-02T10:32:03.956Z,10.54
2024-04-02T10:35:16.268Z,10.61
2024-04-02T10:38:18.833Z,10.68
2024-04-02T10:41:21.443Z,10.76
2024-04-02T10:44:24.275Z,10.84
2024-04-02T10:47:28.835Z,10.94
2024-04-02T10:50:31.651Z,11.04
2024-04-02T10:53:34.312Z,11.10
2024-04-02T10:56:37.768Z,11.15
2024-04-02T10:59:44.842Z,11.19
2024-04-02T11:02:48.065Z,11.25
2024-04-02T11:05:51.062Z,11.31
2024-04-02T11:08:55.351Z,11.36
2024-04-02T11:11:59.621Z,11.38
2024-04-02T11:15:02.652Z,11.34
2024-04-02T11:18:05.718Z,11.36
2024-04-02T11:21:15.926Z,11.36
2024-04-02T11:24:37.201Z,11.39
2024-04-02T11:27:41.891Z,11.39
2024-04-02T11:30:44.649Z,11.36
2024-04-02T11:33:47.518Z,11.36
2024-04-02T11:36:50.159Z,11.37
2024-04-02T11:39:54.814Z,11.41
2024-04-02T11:42:57.564Z,11.48
2024-04-02T11:46:00.228Z,11.51
2024-04-02T11:49:04.204Z,11.55
2024-04-02T11:52:07.014Z,11.57
2024-04-02T11:55:09.640Z,11.57
2024-04-02T11:58:30.777Z,11.57
2024-04-02T12:01:34.003Z,11.58
2024-04-02T12:04:36.590Z,11.61
2024-04-02T12:07:39.956Z,11.61
2024-04-02T12:10:43.127Z,11.59
2024-04-02T12:13:48.517Z,11.57
2024-04-02T12:16:51.149Z,11.53
2024-04-02T12:19:56.447Z,11.50
2024-04-02T12:22:59.133Z,11.48
2024-04-02T12:26:01.775Z,11.44
2024-04-02T12:29:04.918Z,11.42
2024-04-02T12:32:11.281Z,11.42
2024-04-02T12:35:13.887Z,11.43
2024-04-02T12:38:16.820Z,11.44
2024-04-02T12:41:19.562Z,11.49
2024-04-02T12:44:22.230Z,11.55
2024-04-02T12:47:25.341Z,11.62
2024-04-02T12:50:28.067Z,11.66
2024-04-02T12:53:30.828Z,11.73
2024-04-02T12:56:33.886Z,11.75
2024-04-02T12:59:36.652Z,11.80
2024-04-02T13:02:39.442Z,11.82
2024-04-02T13:05:42.611Z,11.80
2024-04-02T13:08:47.779Z,11.80
2024-04-02T13:11:50.383Z,11.80
2024-04-02T13:14:53.113Z,11.76
2024-04-02T13:17:55.784Z,11.78
2024-04-02T13:21:00.866Z,11.81
2024-04-02T13:24:05.248Z,11.82
2024-04-02T13:27:07.875Z,11.82
2024-04-02T13:30:10.939Z,11.81
2024-04-02T13:33:14.083Z,11.84
2024-04-02T13:36:17.684Z,11.86
2024-04-02T13:39:20.387Z,11.89
2024-04-02T13:42:23.044Z,11.91
2024-04-02T13:45:25.586Z,11.90
2024-04-02T13:48:28.996Z,11.88
2024-04-02T13:51:31.664Z,11.87
2024-04-02T13:54:34.637Z,11.87
2024-04-02T13:57:37.252Z,11.88
2024-04-02T14:00:39.887Z,11.93
2024-04-02T14:03:42.742Z,11.96
2024-04-02T14:06:45.400Z,11.98
2024-04-02T14:09:48.013Z,11.99
2024-04-02T14:12:50.804Z,11.98
2024-04-02T14:15:54.001Z,11.97
2024-04-02T14:19:03.035Z,11.97
2024-04-02T14:22:05.751Z,12.00
2024-04-02T14:25:09.128Z,12.01
2024-04-02T14:28:11.720Z,11.99
2024-04-02T14:31:21.301Z,11.99
2024-04-02T14:34:25.630Z,11.99
2024-04-02T14:37:28.351Z,11.97
2024-04-02T14:40:34.221Z,11.96
2024-04-02T14:43:37.239Z,12.00
2024-04-02T14:46:39.937Z,12.06
2024-04-02T14:49:42.558Z,12.10
2024-04-02T14:52:45.177Z,12.11
2024-04-02T14:56:06.702Z,12.12
2024-04-02T14:59:09.355Z,12.16
2024-04-02T15:02:16.442Z,12.17
2024-04-02T15:05:19.179Z,12.20
2024-04-02T15:08:21.852Z,12.19
2024-04-02T15:11:24.457Z,12.19
2024-04-02T15:14:27.108Z,12.20
2024-04-02T15:17:30.900Z,12.19
2024-04-02T15:20:35.712Z,12.20
2024-04-02T15:23:38.330Z,12.20
2024-04-02T15:26:40.924Z,12.19
2024-04-02T15:29:46.535Z,12.17
2024-04-02T15:32:50.569Z,12.17
2024-04-02T15:35:53.325Z,12.18
2024-04-02T15:38:55.954Z,12.18
2024-04-02T15:41:58.597Z,12.21
2024-04-02T15:45:01.449Z,12.19
2024-04-02T15:48:04.239Z,12.16
2024-04-02T15:51:08.365Z,12.11
2024-04-02T15:54:11.751Z,12.07
2024-04-02T15:57:14.462Z,12.04
2024-04-02T16:00:17.606Z,12.01
2024-04-02T16:03:20.374Z,11.98
2024-04-02T16:06:23.321Z,11.97
2024-04-02T16:09:25.911Z,11.96
2024-04-02T16:12:28.568Z,11.95
2024-04-02T16:15:31.558Z,11.93
2024-04-02T16:18:35.103Z,11.92
2024-04-02T16:21:37.829Z,11.90
2024-04-02T16:24:42.515Z,11.87
2024-04-02T16:27:48.409Z,11.81
2024-04-02T16:30:51.505Z,11.74
2024-04-02T16:33:54.199Z,11.68
2024-04-02T16:36:56.863Z,11.60
2024-04-02T16:39:59.795Z,11.51
2024-04-02T16:43:02.815Z,11.45
2024-04-02T16:46:09.903Z,11.40
2024-04-02T16:49:12.503Z,11.35
2024-04-02T16:52:15.169Z,11.29
2024-04-02T16:55:17.852Z,11.24
2024-04-02T16:58:20.450Z,11.17
2024-04-02T17:01:24.466Z,11.08
2024-04-02T17:04:27.145Z,11.02
2024-04-02T17:07:31.020Z,10.95
2024-04-02T17:10:33.690Z,10.88
2024-04-02T17:13:53.085Z,10.81
2024-04-02T17:16:55.723Z,10.75
2024-04-02T17:19:59.844Z,10.68
2024-04-02T17:23:02.524Z,10.62
2024-04-02T17:26:05.259Z,10.56
2024-04-02T17:29:07.903Z,10.51
2024-04-02T17:32:10.897Z,10.46
2024-04-02T17:35:13.574Z,10.41
2024-04-02T17:38:18.229Z,10.37
2024-04-02T17:41:22.403Z,10.33
2024-04-02T17:44:25.169Z,10.29
2024-04-02T17:47:27.782Z,10.26
2024-04-02T17:50:30.513Z,10.25
2024-04-02T17:53:34.444Z,10.22
2024-04-02T17:56:37.057Z,10.19
2024-04-02T17:59:39.809Z,10.17
2024-04-02T18:02:42.506Z,10.15
2024-04-02T18:05:45.216Z,10.13
2024-04-02T18:08:48.639Z,10.11
2024-04-02T18:11:51.897Z,10.09
2024-04-02T18:14:54.610Z,10.08
2024-04-02T18:17:58.349Z,10.06
2024-04-02T18:21:05.890Z,10.03
2024-04-02T18:24:08.564Z,10.00
2024-04-02T18:27:11.894Z,9.97
2024-04-02T18:30:14.747Z,9.95
2024-04-02T18:33:18.316Z,9.94
2024-04-02T18:36:24.834Z,9.93
2024-04-02T18:39:27.462Z,9.93
2024-04-02T18:42:30.140Z,9.92
2024-04-02T18:45:32.809Z,9.92
2024-04-02T18:48:35.731Z,9.94
2024-04-02T18:51:38.951Z,9.95
2024-04-02T18:54:41.715Z,9.94
2024-04-02T18:57:44.530Z,9.92
2024-04-02T19:00:47.167Z,9.90
2024-04-02T19:03:49.895Z,9.88
2024-04-02T19:06:56.752Z,9.85
2024-04-02T19:10:19.284Z,9.82
2024-04-02T19:13:21.965Z,9.80
2024-04-02T19:16:24.547Z,9.79
2024-04-02T19:19:27.201Z,9.78
2024-04-02T19:22:30.270Z,9.77
2024-04-02T19:25:32.870Z,9.75
2024-04-02T19:28:35.625Z,9.74
2024-04-02T19:31:38.283Z,9.71
2024-04-02T19:34:41.013Z,9.68
2024-04-02T19:37:43.905Z,9.64
2024-04-02T19:41:07.457Z,9.60
2024-04-02T19:44:10.092Z,9.58
2024-04-02T19:47:12.809Z,9.56
2024-04-02T19:50:15.403Z,9.54
2024-04-02T19:53:21.219Z,9.51
2024-04-02T19:56:24.017Z,9.50
2024-04-02T19:59:26.708Z,9.49
2024-04-02T20:02:29.331Z,9.46
2024-04-02T20:05:34.582Z,9.44
2024-04-02T20:08:37.799Z,9.42
2024-04-02T20:11:40.460Z,9.42
2024-04-02T20:14:43.072Z,9.42
2024-04-02T20:17:45.754Z,9.42
2024-04-02T20:20:58.379Z,9.44
2024-04-02T20:24:00.938Z,9.44
2024-04-02T20:27:03.764Z,9.43
2024-04-02T20:30:08.278Z,9.42
2024-04-02T20:33:10.866Z,9.41
2024-04-02T20:36:20.147Z,9.41
2024-04-02T20:39:24.587Z,9.39
2024-04-02T20:42:27.264Z,9.37
2024-04-02T20:45:29.958Z,9.33
2024-04-02T20:48:32.990Z,9.30
2024-04-02T20:51:35.677Z,9.27
2024-04-02T20:54:41.353Z,9.26
2024-04-02T20:57:44.028Z,9.23
2024-04-02T21:00:46.678Z,9.20
2024-04-02T21:03:49.341Z,9.17
2024-04-02T21:06:52.688Z,9.13
2024-04-02T21:09:55.464Z,9.08
2024-04-02T21:12:58.151Z,9.06
2024-04-02T21:16:03.386Z,9.06
2024-04-02T21:19:07.175Z,9.06
2024-04-02T21:22:09.793Z,9.07
2024-04-02T21:25:12.416Z,9.07
2024-04-02T21:28:15.492Z,9.07
2024-04-02T21:31:18.049Z,9.06
2024-04-02T21:34:20.699Z,9.04
2024-04-02T21:37:23.886Z,9.02
2024-04-02T21:40:26.635Z,8.99
2024-04-02T21:43:30.705Z,8.95
2024-04-02T21:46:33.656Z,8.90
2024-04-02T21:49:36.320Z,8.88
2024-04-02T21:52:38.966Z,8.85
2024-04-02T21:55:41.598Z,8.83
2024-04-02T21:58:44.245Z,8.83
2024-04-02T22:01:47.306Z,8.84
2024-04-02T22:04:49.924Z,8.84
2024-04-02T22:07:52.542Z,8.84
2024-04-02T22:11:01.576Z,8.83
2024-04-02T22:14:04.342Z,8.81
2024-04-02T22:17:07.016Z,8.81
2024-04-02T22:20:12.907Z,8.80
2024-04-02T22:23:17.069Z,8.81
2024-04-02T22:26:19.916Z,8.83
2024-04-02T22:29:22.697Z,8.84
2024-04-02T22:32:25.578Z,8.85
2024-04-02T22:35:28.719Z,8.86
2024-04-02T22:38:31.348Z,8.88
2024-04-02T22:41:34.060Z,8.88
2024-04-02T22:44:38.389Z,8.88
2024-04-02T22:47:41.754Z,8.85
2024-04-02T22:50:44.404Z,8.83
2024-04-02T22:53:47.053Z,8.83
2024-04-02T22:56:49.787Z,8.83
2024-04-02T22:59:53.131Z,8.84
2024-04-02T23:02:55.750Z,8.85
2024-04-02T23:05:58.560Z,8.87
2024-04-02T23:09:01.580Z,8.90
2024-04-02T23:12:04.893Z,8.91
2024-04-02T23:15:07.853Z,8.92
2024-04-02T23:18:10.540Z,8.93
2024-04-02T23:21:13.219Z,8.94
2024-04-02T23:24:16.117Z,8.96
2024-04-02T23:27:18.820Z,8.97
2024-04-02T23:30:21.426Z,8.97
2024-04-02T23:33:24.145Z,8.97
2024-04-02T23:36:26.773Z,8.96
2024-04-02T23:39:29.344Z,8.97
2024-04-02T23:42:33.214Z,8.96
2024-04-02T23:45:35.830Z,8.97
2024-04-02T23:48:39.519Z,8.98
2024-04-02T23:51:42.075Z,8.98
2024-04-02T23:54:44.672Z,8.99
2024-04-02T23:57:47.237Z,9.00
